createdAt,value
2018-10-02T00:01:49.542Z,97.00
2018-10-02T00:04:18.258Z,97.00
2018-10-02T00:06:46.893Z,97.10
2018-10-02T00:09:15.635Z,97.20
2018-10-02T00:11:49.454Z,97.30
2018-10-02T00:14:25.152Z,97.20
2018-10-02T00:16:53.827Z,97.10
2018-10-02T00:19:22.526Z,96.90
2018-10-02T00:21:51.310Z,96.90
2018-10-02T00:24:20.007Z,96.90
2018-10-02T00:26:48.766Z,96.90
2018-10-02T00:29:17.440Z,96.80
2018-10-02T00:31:46.950Z,96.70
2018-10-02T00:34:15.632Z,96.80
2018-10-02T00:36:44.292Z,96.70
2018-10-02T00:39:13.006Z,96.60
2018-10-02T00:41:41.702Z,96.40
2018-10-02T00:44:10.329Z,96.50
2018-10-02T00:46:39.035Z,96.80
2018-10-02T00:49:07.762Z,96.30
2018-10-02T00:51:36.455Z,96.40
2018-10-02T00:54:05.118Z,96.30
2018-10-02T00:56:33.815Z,96.20
2018-10-02T00:59:02.496Z,96.20
2018-10-02T01:01:31.152Z,96.20
2018-10-02T01:03:59.813Z,96.20
2018-10-02T01:06:28.560Z,96.10
2018-10-02T01:08:57.192Z,96.20
2018-10-02T01:11:25.799Z,96.30
2018-10-02T01:13:54.513Z,96.30
2018-10-02T01:16:23.234Z,96.30
2018-10-02T01:18:51.849Z,96.30
2018-10-02T01:21:20.500Z,96.40
2018-10-02T01:23:49.220Z,96.30
2018-10-02T01:26:17.861Z,96.30
2018-10-02T01:28:46.509Z,96.20
2018-10-02T01:31:15.183Z,96.10
2018-10-02T01:33:43.819Z,96.10
2018-10-02T01:36:12.498Z,96.20
2018-10-02T01:38:41.190Z,96.30
2018-10-02T01:41:09.860Z,96.20
2018-10-02T01:43:38.567Z,96.30
2018-10-02T01:46:07.753Z,96.20
2018-10-02T01:48:36.501Z,96.10
2018-10-02T01:51:05.218Z,96.20
2018-10-02T01:53:33.999Z,96.10
2018-10-02T01:56:02.652Z,96.20
2018-10-02T01:58:31.313Z,96.20
2018-10-02T02:00:59.963Z,96.20
2018-10-02T02:03:28.900Z,96.50
2018-10-02T02:05:57.528Z,96.20
2018-10-02T02:08:26.177Z,96.20
2018-10-02T02:10:54.878Z,96.20
2018-10-02T02:13:23.629Z,96.40
2018-10-02T02:15:52.341Z,96.40
2018-10-02T02:18:21.043Z,96.20
2018-10-02T02:20:49.710Z,96.20
2018-10-02T02:23:18.365Z,96.10
2018-10-02T02:25:47.041Z,96.00
2018-10-02T02:28:15.700Z,96.10
2018-10-02T02:30:44.341Z,96.10
2018-10-02T02:33:13.026Z,96.00
2018-10-02T02:35:41.687Z,96.10
2018-10-02T02:38:10.415Z,96.00
2018-10-02T02:40:39.120Z,96.10
2018-10-02T02:43:07.815Z,96.10
2018-10-02T02:45:36.517Z,96.10
2018-10-02T02:48:10.348Z,96.00
2018-10-02T02:51:46.513Z,96.00
2018-10-02T02:54:15.188Z,96.00
2018-10-02T02:56:43.832Z,95.90
2018-10-02T02:59:12.474Z,96.00
2018-10-02T03:01:41.234Z,96.00
2018-10-02T03:04:09.913Z,96.00
2018-10-02T03:06:38.605Z,95.90
2018-10-02T03:09:08.111Z,95.90
2018-10-02T03:11:36.859Z,95.90
2018-10-02T03:14:05.518Z,95.80
2018-10-02T03:16:34.165Z,95.80
2018-10-02T03:19:02.836Z,96.20
2018-10-02T03:21:31.527Z,96.30
2018-10-02T03:24:00.155Z,95.80
2018-10-02T03:26:28.806Z,95.80
2018-10-02T03:28:57.476Z,95.90
2018-10-02T03:31:26.152Z,95.70
2018-10-02T03:33:54.843Z,95.40
2018-10-02T03:36:23.505Z,95.50
2018-10-02T03:38:52.203Z,95.60
2018-10-02T03:41:20.872Z,95.80
2018-10-02T03:43:49.560Z,95.40
2018-10-02T03:46:18.444Z,95.30
2018-10-02T03:48:47.094Z,95.40
2018-10-02T03:51:15.765Z,95.40
2018-10-02T03:53:44.601Z,95.40
2018-10-02T03:56:13.279Z,95.40
2018-10-02T03:58:42.011Z,95.30
2018-10-02T04:01:10.713Z,95.40
2018-10-02T04:03:39.407Z,95.20
2018-10-02T04:06:08.053Z,95.00
2018-10-02T04:08:36.710Z,95.00
2018-10-02T04:11:05.388Z,95.00
2018-10-02T04:13:33.979Z,94.70
2018-10-02T04:16:02.683Z,94.70
2018-10-02T04:18:31.340Z,94.50
2018-10-02T04:20:59.977Z,94.50
2018-10-02T04:23:28.673Z,94.20
2018-10-02T04:25:57.299Z,94.20
2018-10-02T04:28:25.992Z,94.30
2018-10-02T04:30:54.599Z,94.20
2018-10-02T04:33:23.296Z,94.20
2018-10-02T04:35:52.041Z,94.30
2018-10-02T04:38:20.641Z,94.40
2018-10-02T04:40:49.348Z,94.50
2018-10-02T04:43:18.025Z,95.00
2018-10-02T04:45:46.869Z,95.00
2018-10-02T04:48:15.511Z,94.90
2018-10-02T04:50:44.176Z,95.20
2018-10-02T04:53:12.892Z,95.30
2018-10-02T04:55:41.564Z,95.20
2018-10-02T04:58:10.273Z,95.40
2018-10-02T05:00:38.940Z,95.70
2018-10-02T05:03:07.615Z,95.60
2018-10-02T05:05:36.299Z,95.60
2018-10-02T05:08:05.100Z,95.90
2018-10-02T05:10:33.722Z,95.90
2018-10-02T05:13:02.458Z,95.80
2018-10-02T05:15:31.122Z,95.70
2018-10-02T05:17:59.780Z,95.90
2018-10-02T05:20:28.497Z,96.00
2018-10-02T05:22:57.151Z,96.10
2018-10-02T05:25:25.818Z,96.20
2018-10-02T05:27:54.480Z,96.40
2018-10-02T05:30:23.262Z,96.30
2018-10-02T05:32:52.413Z,96.40
2018-10-02T05:35:21.212Z,96.40
2018-10-02T05:37:49.776Z,96.50
2018-10-02T05:40:18.501Z,96.60
2018-10-02T05:42:47.233Z,96.80
2018-10-02T05:45:15.883Z,96.90
2018-10-02T05:47:44.599Z,96.90
2018-10-02T05:50:13.264Z,96.90
2018-10-02T05:52:41.957Z,96.90
2018-10-02T05:55:10.653Z,97.00
2018-10-02T05:57:39.538Z,97.10
2018-10-02T06:00:08.707Z,97.00
2018-10-02T06:02:37.432Z,96.90
2018-10-02T06:05:06.355Z,97.10
2018-10-02T06:07:35.019Z,97.20
2018-10-02T06:10:03.887Z,97.40
2018-10-02T06:12:32.574Z,97.40
2018-10-02T06:15:01.235Z,97.50
2018-10-02T06:17:29.832Z,97.60
2018-10-02T06:19:58.500Z,97.80
2018-10-02T06:22:27.119Z,97.90
2018-10-02T06:24:55.836Z,98.00
2018-10-02T06:27:24.541Z,98.10
2018-10-02T06:29:53.269Z,98.10
2018-10-02T06:32:21.887Z,98.10
2018-10-02T06:34:50.566Z,98.00
2018-10-02T06:37:19.274Z,97.90
2018-10-02T06:39:47.961Z,98.00
2018-10-02T06:42:16.675Z,97.70
2018-10-02T06:44:45.490Z,97.70
2018-10-02T06:47:14.037Z,98.10
2018-10-02T06:49:42.658Z,97.90
2018-10-02T06:52:11.486Z,97.80
2018-10-02T06:54:39.937Z,97.80
2018-10-02T06:57:09.811Z,97.80
2018-10-02T06:59:38.404Z,97.90
2018-10-02T07:02:07.177Z,97.80
2018-10-02T07:04:35.873Z,97.80
2018-10-02T07:07:04.595Z,97.90
2018-10-02T07:09:33.241Z,97.90
2018-10-02T07:12:01.885Z,97.90
2018-10-02T07:14:30.624Z,98.10
2018-10-02T07:16:59.297Z,97.90
2018-10-02T07:19:27.968Z,97.40
2018-10-02T07:21:56.601Z,97.70
2018-10-02T07:24:25.290Z,97.40
2018-10-02T07:26:54.205Z,97.50
2018-10-02T07:29:22.742Z,97.50
2018-10-02T07:31:51.420Z,97.40
2018-10-02T07:34:20.133Z,97.50
2018-10-02T07:36:48.868Z,97.60
2018-10-02T07:39:17.543Z,97.70
2018-10-02T07:41:46.257Z,97.80
2018-10-02T07:44:14.952Z,97.90
2018-10-02T07:46:43.605Z,97.90
2018-10-02T07:49:12.314Z,98.00
2018-10-02T07:51:40.933Z,98.10
2018-10-02T07:54:09.665Z,98.10
2018-10-02T07:56:38.343Z,98.20
2018-10-02T07:59:07.056Z,98.20
2018-10-02T08:01:35.703Z,98.20
2018-10-02T08:04:04.417Z,98.20
2018-10-02T08:06:32.994Z,98.20
2018-10-02T08:09:01.717Z,98.20
2018-10-02T08:11:30.361Z,98.10
2018-10-02T08:13:58.987Z,98.00
2018-10-02T08:16:27.621Z,97.90
2018-10-02T08:18:56.224Z,98.10
2018-10-02T08:21:24.869Z,98.00
2018-10-02T08:23:53.580Z,98.40
2018-10-02T08:26:22.256Z,97.80
2018-10-02T08:28:50.874Z,97.70
2018-10-02T08:31:19.558Z,98.20
2018-10-02T08:33:48.178Z,97.90
2018-10-02T08:36:16.890Z,98.20
2018-10-02T08:38:45.648Z,98.10
2018-10-02T08:41:14.233Z,97.70
2018-10-02T08:43:43.062Z,97.50
2018-10-02T08:46:11.694Z,97.30
2018-10-02T08:48:40.307Z,97.40
2018-10-02T08:51:08.966Z,97.10
2018-10-02T08:53:37.659Z,96.90
2018-10-02T08:56:06.340Z,97.10
2018-10-02T08:58:35.018Z,96.80
2018-10-02T09:01:03.700Z,96.60
2018-10-02T09:03:32.364Z,96.70
2018-10-02T09:06:01.040Z,96.70
2018-10-02T09:08:29.688Z,96.50
2018-10-02T09:10:58.293Z,96.60
2018-10-02T09:13:26.956Z,96.00
2018-10-02T09:15:55.865Z,96.20
2018-10-02T09:18:24.353Z,96.00
2018-10-02T09:20:53.360Z,96.20
2018-10-02T09:23:22.000Z,96.20
2018-10-02T09:25:50.669Z,96.00
2018-10-02T09:28:19.348Z,96.20
2018-10-02T09:30:53.350Z,95.80
2018-10-02T09:33:27.213Z,96.00
2018-10-02T09:36:01.183Z,95.70
2018-10-02T09:38:35.347Z,95.50
2018-10-02T09:41:09.392Z,95.50
2018-10-02T09:43:41.913Z,95.40
2018-10-02T09:46:10.572Z,95.50
2018-10-02T09:48:39.243Z,95.60
2018-10-02T09:51:07.875Z,95.60
2018-10-02T09:53:36.461Z,95.50
2018-10-02T09:56:05.140Z,95.70
2018-10-02T09:58:33.784Z,95.70
2018-10-02T10:01:10.799Z,96.00
2018-10-02T10:03:39.467Z,95.80
2018-10-02T10:06:08.157Z,95.60
2018-10-02T10:08:36.796Z,95.70
2018-10-02T10:11:05.460Z,95.90
2018-10-02T10:13:34.434Z,96.00
2018-10-02T10:16:03.284Z,96.10
2018-10-02T10:18:31.919Z,96.40
2018-10-02T10:21:00.543Z,96.50
2018-10-02T10:23:29.187Z,96.70
2018-10-02T10:25:57.849Z,96.90
2018-10-02T10:28:26.578Z,96.90
2018-10-02T10:30:55.214Z,97.20
2018-10-02T10:33:23.844Z,97.40
2018-10-02T10:35:52.475Z,97.90
2018-10-02T10:38:21.101Z,97.70
2018-10-02T10:40:49.820Z,97.80
2018-10-02T10:43:18.478Z,97.80
2018-10-02T10:45:47.151Z,98.10
2018-10-02T10:48:15.841Z,97.90
2018-10-02T10:50:45.405Z,98.00
2018-10-02T10:53:14.083Z,97.90
2018-10-02T10:55:42.758Z,98.40
2018-10-02T10:58:11.433Z,98.20
2018-10-02T11:00:40.099Z,98.10
2018-10-02T11:03:08.805Z,98.30
2018-10-02T11:05:37.377Z,98.20
2018-10-02T11:08:06.027Z,98.30
2018-10-02T11:10:34.713Z,98.30
2018-10-02T11:13:03.337Z,98.30
2018-10-02T11:15:33.094Z,98.50
2018-10-02T11:18:01.915Z,98.40
2018-10-02T11:20:33.229Z,98.80
2018-10-02T11:23:02.008Z,98.70
2018-10-02T11:25:30.678Z,99.00
2018-10-02T11:27:59.432Z,98.40
2018-10-02T11:30:28.111Z,98.10
2018-10-02T11:32:56.768Z,98.00
2018-10-02T11:35:25.516Z,98.20
2018-10-02T11:37:54.183Z,98.40
2018-10-02T11:40:22.817Z,98.30
2018-10-02T11:42:51.499Z,98.30
2018-10-02T11:45:20.181Z,98.70
2018-10-02T11:47:48.878Z,98.40
2018-10-02T11:50:17.499Z,98.60
2018-10-02T11:52:46.173Z,98.50
2018-10-02T11:55:14.866Z,98.50
2018-10-02T11:57:43.497Z,98.60
2018-10-02T12:00:12.167Z,98.60
2018-10-02T12:02:40.876Z,98.60
2018-10-02T12:05:09.530Z,98.90
2018-10-02T12:07:38.201Z,99.00
2018-10-02T12:10:06.971Z,99.00
2018-10-02T12:12:35.593Z,99.10
2018-10-02T12:15:04.330Z,99.00
2018-10-02T12:17:32.955Z,99.20
2018-10-02T12:20:01.695Z,99.50
2018-10-02T12:22:30.321Z,99.60
2018-10-02T12:24:58.967Z,99.70
2018-10-02T12:27:27.594Z,99.90
2018-10-02T12:29:56.280Z,99.90
2018-10-02T12:32:25.066Z,99.90
2018-10-02T12:34:53.699Z,99.90
2018-10-02T12:37:22.344Z,99.90
2018-10-02T12:39:51.036Z,99.90
2018-10-02T12:42:19.689Z,99.90
2018-10-02T12:44:48.371Z,99.90
2018-10-02T12:47:17.068Z,99.90
2018-10-02T12:49:45.735Z,99.90
2018-10-02T12:52:14.433Z,99.90
2018-10-02T12:54:43.153Z,99.90
2018-10-02T12:57:12.013Z,99.90
2018-10-02T12:59:40.708Z,99.90
2018-10-02T13:02:09.489Z,99.90
2018-10-02T13:04:38.115Z,99.90
2018-10-02T13:07:06.866Z,99.80
2018-10-02T13:09:35.505Z,99.90
2018-10-02T13:12:04.190Z,99.90
2018-10-02T13:14:32.829Z,99.90
2018-10-02T13:17:01.483Z,99.90
2018-10-02T13:19:30.179Z,99.90
2018-10-02T13:21:58.838Z,99.70
2018-10-02T13:24:27.555Z,99.10
2018-10-02T13:26:56.191Z,99.10
2018-10-02T13:29:24.833Z,99.00
2018-10-02T13:31:53.514Z,99.20
2018-10-02T13:34:22.229Z,99.20
2018-10-02T13:36:50.864Z,99.00
2018-10-02T13:39:19.597Z,98.80
2018-10-02T13:41:48.276Z,98.80
2018-10-02T13:44:16.904Z,98.80
2018-10-02T13:46:45.563Z,98.80
2018-10-02T13:49:14.205Z,98.90
2018-10-02T13:51:42.862Z,99.20
2018-10-02T13:54:11.490Z,99.10
2018-10-02T13:56:40.129Z,99.20
2018-10-02T13:59:08.762Z,99.10
2018-10-02T14:01:37.461Z,99.30
2018-10-02T14:04:06.100Z,99.20
2018-10-02T14:06:34.850Z,99.10
2018-10-02T14:09:03.765Z,99.00
2018-10-02T14:11:32.398Z,98.90
2018-10-02T14:14:00.984Z,98.90
2018-10-02T14:16:29.650Z,99.20
2018-10-02T14:18:58.390Z,99.20
2018-10-02T14:21:27.107Z,99.50
2018-10-02T14:23:55.836Z,99.60
2018-10-02T14:26:24.412Z,99.70
2018-10-02T14:28:53.012Z,99.90
2018-10-02T14:31:21.699Z,99.60
2018-10-02T14:33:50.349Z,99.10
2018-10-02T14:36:19.025Z,98.90
2018-10-02T14:38:47.672Z,98.90
2018-10-02T14:41:16.375Z,99.00
2018-10-02T14:43:45.005Z,99.00
2018-10-02T14:46:13.664Z,98.70
2018-10-02T14:48:42.359Z,99.00
2018-10-02T14:51:11.028Z,98.50
2018-10-02T14:53:39.699Z,98.50
2018-10-02T14:56:08.337Z,98.60
2018-10-02T14:58:37.005Z,98.70
2018-10-02T15:01:05.780Z,98.60
2018-10-02T15:03:34.427Z,98.70
2018-10-02T15:06:03.053Z,98.60
2018-10-02T15:08:31.704Z,98.60
2018-10-02T15:11:00.353Z,98.70
2018-10-02T15:13:29.017Z,98.20
2018-10-02T15:15:57.661Z,97.50
2018-10-02T15:18:26.294Z,97.20
2018-10-02T15:20:55.016Z,96.90
2018-10-02T15:23:23.682Z,97.00
2018-10-02T15:25:52.353Z,97.00
2018-10-02T15:28:21.012Z,97.40
2018-10-02T15:30:49.827Z,97.30
2018-10-02T15:33:18.506Z,97.10
2018-10-02T15:35:47.168Z,97.10
2018-10-02T15:38:15.842Z,97.10
2018-10-02T15:40:44.501Z,97.10
2018-10-02T15:43:13.190Z,96.30
2018-10-02T15:45:41.868Z,96.00
2018-10-02T15:48:10.614Z,95.90
2018-10-02T15:50:39.289Z,95.30
2018-10-02T15:53:07.919Z,95.00
2018-10-02T15:55:36.553Z,94.80
2018-10-02T15:58:05.235Z,94.90
2018-10-02T16:00:33.929Z,94.20
2018-10-02T16:03:02.578Z,93.70
2018-10-02T16:05:31.339Z,93.20
2018-10-02T16:08:00.081Z,93.70
2018-10-02T16:10:28.739Z,94.10
2018-10-02T16:12:57.393Z,93.70
2018-10-02T16:15:26.162Z,93.80
2018-10-02T16:17:54.927Z,93.80
2018-10-02T16:20:23.525Z,94.20
2018-10-02T16:22:52.158Z,94.20
2018-10-02T16:25:20.836Z,93.40
2018-10-02T16:27:49.799Z,94.10
2018-10-02T16:30:18.595Z,93.40
2018-10-02T16:32:47.250Z,93.50
2018-10-02T16:35:16.077Z,93.60
2018-10-02T16:37:44.961Z,93.80
2018-10-02T16:40:13.582Z,93.60
2018-10-02T16:42:42.282Z,93.40
2018-10-02T16:45:10.945Z,93.90
2018-10-02T16:47:39.660Z,93.50
2018-10-02T16:50:08.394Z,93.50
2018-10-02T16:52:37.037Z,92.60
2018-10-02T16:55:06.125Z,92.30
2018-10-02T16:57:34.880Z,91.70
2018-10-02T17:00:03.957Z,91.70
2018-10-02T17:02:32.605Z,91.30
2018-10-02T17:05:01.427Z,91.60
2018-10-02T17:07:30.269Z,91.80
2018-10-02T17:09:58.959Z,91.50
2018-10-02T17:12:27.614Z,91.20
2018-10-02T17:14:56.328Z,91.20
2018-10-02T17:17:25.002Z,90.40
2018-10-02T17:19:53.956Z,91.30
2018-10-02T17:22:22.644Z,91.40
2018-10-02T17:24:51.373Z,92.20
2018-10-02T17:27:20.008Z,91.60
2018-10-02T17:29:48.610Z,91.10
2018-10-02T17:32:17.329Z,91.10
2018-10-02T17:34:45.986Z,90.90
2018-10-02T17:37:14.617Z,90.60
2018-10-02T17:39:44.799Z,91.30
2018-10-02T17:42:13.695Z,91.10
2018-10-02T17:44:42.304Z,91.10
2018-10-02T17:47:11.155Z,91.60
2018-10-02T17:49:39.906Z,91.90
2018-10-02T17:52:08.736Z,91.70
2018-10-02T17:54:37.380Z,92.00
2018-10-02T17:57:06.035Z,92.10
2018-10-02T17:59:34.711Z,94.90
2018-10-02T18:02:03.352Z,92.30
2018-10-02T18:04:32.006Z,92.80
2018-10-02T18:07:00.696Z,92.80
2018-10-02T18:09:29.354Z,93.20
2018-10-02T18:11:58.074Z,93.40
2018-10-02T18:14:26.702Z,93.30
2018-10-02T18:16:55.307Z,93.10
2018-10-02T18:19:23.969Z,93.20
2018-10-02T18:21:52.683Z,93.20
2018-10-02T18:24:21.359Z,93.30
2018-10-02T18:26:50.017Z,93.30
2018-10-02T18:29:18.690Z,93.40
2018-10-02T18:31:47.365Z,93.40
2018-10-02T18:34:16.020Z,93.60
2018-10-02T18:36:44.779Z,93.70
2018-10-02T18:39:13.431Z,93.30
2018-10-02T18:41:42.069Z,93.30
2018-10-02T18:44:10.754Z,93.30
2018-10-02T18:46:39.357Z,93.20
2018-10-02T18:49:08.127Z,92.90
2018-10-02T18:51:36.886Z,93.10
2018-10-02T18:54:05.561Z,92.90
2018-10-02T18:56:34.289Z,92.50
2018-10-02T18:59:03.072Z,92.60
2018-10-02T19:01:31.814Z,92.70
2018-10-02T19:04:00.523Z,92.90
2018-10-02T19:06:29.165Z,92.60
2018-10-02T19:09:03.158Z,93.00
2018-10-02T19:11:37.033Z,92.80
2018-10-02T19:14:05.688Z,93.00
2018-10-02T19:16:35.410Z,92.80
2018-10-02T19:19:04.082Z,92.70
2018-10-02T19:21:32.705Z,92.20
2018-10-02T19:24:01.386Z,92.30
2018-10-02T19:26:30.323Z,92.20
2018-10-02T19:28:58.992Z,92.20
2018-10-02T19:31:33.125Z,92.10
2018-10-02T19:34:01.925Z,92.10
2018-10-02T19:36:30.618Z,91.80
2018-10-02T19:39:07.551Z,92.00
2018-10-02T19:41:36.258Z,92.10
2018-10-02T19:44:05.019Z,91.60
2018-10-02T19:47:10.359Z,91.60
2018-10-02T19:49:39.067Z,91.50
2018-10-02T19:52:18.405Z,91.60
2018-10-02T19:54:48.133Z,91.40
2018-10-02T19:57:18.122Z,91.70
2018-10-02T19:59:46.759Z,91.70
2018-10-02T20:02:15.377Z,91.70
2018-10-02T20:04:44.103Z,92.20
2018-10-02T20:07:12.836Z,92.10
2018-10-02T20:09:41.423Z,92.00
2018-10-02T20:12:10.070Z,92.10
2018-10-02T20:14:38.726Z,91.80
2018-10-02T20:17:07.458Z,92.00
2018-10-02T20:19:36.137Z,92.30
2018-10-02T20:22:04.891Z,92.20
2018-10-02T20:24:33.578Z,92.40
2018-10-02T20:27:02.247Z,92.60
2018-10-02T20:29:30.881Z,92.80
2018-10-02T20:31:59.558Z,92.80
2018-10-02T20:34:28.227Z,93.50
2018-10-02T20:36:56.903Z,93.40
2018-10-02T20:39:25.602Z,93.50
2018-10-02T20:41:54.195Z,93.50
2018-10-02T20:44:22.893Z,93.70
2018-10-02T20:46:51.549Z,93.70
2018-10-02T20:49:20.317Z,93.80
2018-10-02T20:51:48.881Z,93.80
2018-10-02T20:54:17.544Z,93.70
2018-10-02T20:56:46.202Z,93.80
2018-10-02T20:59:14.914Z,93.90
2018-10-02T21:01:43.567Z,93.90
2018-10-02T21:04:12.193Z,94.10
2018-10-02T21:06:40.880Z,94.20
2018-10-02T21:09:09.529Z,94.10
2018-10-02T21:11:38.162Z,94.10
2018-10-02T21:14:06.846Z,94.10
2018-10-02T21:16:35.519Z,94.30
2018-10-02T21:19:04.162Z,94.30
2018-10-02T21:21:32.800Z,94.30
2018-10-02T21:24:01.424Z,94.50
2018-10-02T21:26:30.088Z,94.50
2018-10-02T21:28:58.833Z,94.40
2018-10-02T21:31:27.501Z,94.60
2018-10-02T21:33:56.210Z,94.50
2018-10-02T21:36:24.818Z,94.70
2018-10-02T21:38:53.477Z,94.80
2018-10-02T21:41:22.150Z,94.80
2018-10-02T21:43:50.802Z,94.90
2018-10-02T21:46:19.459Z,94.80
2018-10-02T21:48:48.066Z,94.90
2018-10-02T21:51:16.734Z,94.80
2018-10-02T21:53:45.648Z,94.80
2018-10-02T21:56:14.356Z,94.80
2018-10-02T21:58:43.001Z,94.80
2018-10-02T22:01:11.658Z,95.00
2018-10-02T22:03:40.925Z,95.00
2018-10-02T22:06:09.612Z,95.10
2018-10-02T22:08:38.302Z,95.20
2018-10-02T22:11:06.957Z,95.10
2018-10-02T22:13:35.721Z,95.40
2018-10-02T22:16:04.414Z,95.40
2018-10-02T22:18:33.093Z,95.40
2018-10-02T22:21:01.737Z,95.50
2018-10-02T22:23:30.494Z,95.50
2018-10-02T22:25:59.122Z,95.40
2018-10-02T22:28:27.838Z,95.50
2018-10-02T22:30:56.513Z,95.40
2018-10-02T22:33:25.242Z,95.30
2018-10-02T22:35:53.933Z,95.20
2018-10-02T22:38:22.719Z,95.30
2018-10-02T22:40:51.436Z,95.40
2018-10-02T22:43:20.079Z,95.50
2018-10-02T22:45:48.773Z,95.40
2018-10-02T22:48:17.620Z,95.60
2018-10-02T22:50:46.255Z,96.00
2018-10-02T22:53:14.889Z,95.70
2018-10-02T22:55:43.540Z,95.70
2018-10-02T22:58:12.216Z,95.80
2018-10-02T23:00:40.897Z,96.20
2018-10-02T23:03:09.522Z,96.00
2018-10-02T23:05:38.147Z,96.10
2018-10-02T23:08:06.780Z,96.20
2018-10-02T23:10:35.456Z,96.30
2018-10-02T23:13:04.133Z,96.30
2018-10-02T23:15:32.777Z,96.50
2018-10-02T23:18:01.498Z,96.50
2018-10-02T23:20:30.165Z,96.50
2018-10-02T23:22:58.807Z,96.70
2018-10-02T23:25:27.502Z,96.70
2018-10-02T23:27:56.079Z,96.70
2018-10-02T23:30:24.744Z,96.70
2018-10-02T23:32:53.446Z,96.80
2018-10-02T23:35:22.113Z,96.70
2018-10-02T23:37:50.830Z,96.80
2018-10-02T23:40:19.486Z,96.70
2018-10-02T23:42:48.068Z,96.50
2018-10-02T23:45:16.761Z,96.50
2018-10-02T23:47:45.457Z,96.50
2018-10-02T23:50:14.056Z,96.50
2018-10-02T23:52:42.675Z,96.40
2018-10-02T23:55:11.326Z,96.50
2018-10-02T23:57:40.029Z,96.40
